createdAt,value
2022-11-16T00:02:10.677Z,17.70
2022-11-16T00:05:08.218Z,18.00
2022-11-16T00:08:05.781Z,19.80
2022-11-16T00:11:05.497Z,18.70
2022-11-16T00:14:03.233Z,18.70
2022-11-16T00:17:01.707Z,19.10
2022-11-16T00:19:59.244Z,19.90
2022-11-16T00:22:56.748Z,17.70
2022-11-16T00:25:54.283Z,18.60
2022-11-16T00:28:51.849Z,18.30
2022-11-16T00:31:49.433Z,17.60
2022-11-16T00:34:47.129Z,19.70
2022-11-16T00:37:44.645Z,20.50
2022-11-16T00:40:42.163Z,20.00
2022-11-16T00:43:39.697Z,21.00
2022-11-16T00:46:37.285Z,19.90
2022-11-16T00:49:34.840Z,20.00
2022-11-16T00:52:32.385Z,21.10
2022-11-16T00:55:29.934Z,20.20
2022-11-16T00:58:29.066Z,21.60
2022-11-16T01:01:27.114Z,20.20
2022-11-16T01:04:24.655Z,22.40
2022-11-16T01:07:22.163Z,24.30
2022-11-16T01:10:19.663Z,22.50
2022-11-16T01:13:17.147Z,22.40
2022-11-16T01:16:14.627Z,22.70
2022-11-16T01:19:12.067Z,22.20
2022-11-16T01:22:09.521Z,23.70
2022-11-16T01:25:07.017Z,24.60
2022-11-16T01:28:04.490Z,24.80
2022-11-16T01:31:01.969Z,26.10
2022-11-16T01:33:59.701Z,25.10
2022-11-16T01:36:57.188Z,25.10
2022-11-16T01:39:54.646Z,23.90
2022-11-16T01:42:52.151Z,26.40
2022-11-16T01:45:49.714Z,26.00
2022-11-16T01:48:47.287Z,26.20
2022-11-16T01:51:44.777Z,24.20
2022-11-16T01:54:42.229Z,25.60
2022-11-16T01:57:39.986Z,25.20
2022-11-16T02:00:37.431Z,23.70
2022-11-16T02:03:34.894Z,24.80
2022-11-16T02:06:32.726Z,23.50
2022-11-16T02:09:47.865Z,24.80
2022-11-16T02:12:45.325Z,24.80
2022-11-16T02:15:42.762Z,26.00
2022-11-16T02:18:40.246Z,25.00
2022-11-16T02:21:37.713Z,27.00
2022-11-16T02:24:35.168Z,25.40
2022-11-16T02:27:32.612Z,24.80
2022-11-16T02:30:30.041Z,24.70
2022-11-16T02:33:27.484Z,25.90
2022-11-16T02:36:24.902Z,26.30
2022-11-16T02:39:22.351Z,24.30
2022-11-16T02:42:19.804Z,23.20
2022-11-16T02:45:17.231Z,22.90
2022-11-16T02:48:14.685Z,23.70
2022-11-16T02:51:12.110Z,24.40
2022-11-16T02:54:11.778Z,24.40
2022-11-16T02:57:09.229Z,24.40
2022-11-16T03:00:06.682Z,23.90
2022-11-16T03:03:04.150Z,22.40
2022-11-16T03:06:01.597Z,22.00
2022-11-16T03:08:59.036Z,22.70
2022-11-16T03:12:04.700Z,23.70
2022-11-16T03:15:02.176Z,23.80
2022-11-16T03:17:59.630Z,23.60
2022-11-16T03:20:57.093Z,22.70
2022-11-16T03:23:54.560Z,23.50
2022-11-16T03:26:52.005Z,22.40
2022-11-16T03:29:49.471Z,24.90
2022-11-16T03:32:46.921Z,24.10
2022-11-16T03:35:44.381Z,23.80
2022-11-16T03:38:41.836Z,23.50
2022-11-16T03:41:39.289Z,24.40
2022-11-16T03:44:36.757Z,25.00
2022-11-16T03:47:34.197Z,23.90
2022-11-16T03:50:31.658Z,23.40
2022-11-16T03:53:29.149Z,23.10
2022-11-16T03:56:26.601Z,26.90
2022-11-16T03:59:24.051Z,23.00
2022-11-16T04:02:21.538Z,25.10
2022-11-16T04:05:36.815Z,24.90
2022-11-16T04:08:52.072Z,22.90
2022-11-16T04:12:07.538Z,22.70
2022-11-16T04:15:22.853Z,23.20
2022-11-16T04:18:38.413Z,22.20
2022-11-16T04:21:53.745Z,22.30
2022-11-16T04:24:51.197Z,23.30
2022-11-16T04:28:06.447Z,23.20
2022-11-16T04:31:21.675Z,23.70
2022-11-16T04:34:36.877Z,24.20
2022-11-16T04:37:49.926Z,23.60
2022-11-16T04:40:48.085Z,22.00
2022-11-16T04:43:45.535Z,25.30
2022-11-16T04:47:00.566Z,23.70
2022-11-16T04:49:58.021Z,21.70
2022-11-16T04:52:55.500Z,23.20
2022-11-16T04:55:56.696Z,24.50
2022-11-16T04:58:59.350Z,25.60
2022-11-16T05:02:09.209Z,25.20
2022-11-16T05:05:06.696Z,22.90
2022-11-16T05:08:04.122Z,26.00
2022-11-16T05:11:01.554Z,24.10
2022-11-16T05:13:59.008Z,23.90
2022-11-16T05:16:56.478Z,24.10
2022-11-16T05:20:11.698Z,24.10
2022-11-16T05:23:29.800Z,26.20
2022-11-16T05:26:27.288Z,24.40
2022-11-16T05:29:24.719Z,26.80
2022-11-16T05:32:22.210Z,27.40
2022-11-16T05:35:19.665Z,27.90
2022-11-16T05:38:17.121Z,26.00
2022-11-16T05:41:14.601Z,27.40
2022-11-16T05:44:12.044Z,28.10
2022-11-16T05:47:09.507Z,27.10
2022-11-16T05:50:06.956Z,26.00
2022-11-16T05:53:04.505Z,24.60
2022-11-16T05:56:02.038Z,26.90
2022-11-16T05:58:59.486Z,25.20
2022-11-16T06:01:57.956Z,26.90
2022-11-16T06:04:55.423Z,28.80
2022-11-16T06:07:52.889Z,26.30
2022-11-16T06:10:50.366Z,28.00
2022-11-16T06:13:47.814Z,27.00
2022-11-16T06:16:45.264Z,28.20
2022-11-16T06:19:42.722Z,32.40
2022-11-16T06:22:40.171Z,30.20
2022-11-16T06:25:37.632Z,25.70
2022-11-16T06:28:35.364Z,30.40
2022-11-16T06:31:33.156Z,24.40
2022-11-16T06:34:30.612Z,25.70
2022-11-16T06:37:28.072Z,28.10
2022-11-16T06:40:25.523Z,32.90
2022-11-16T06:43:22.977Z,32.50
2022-11-16T06:46:20.422Z,50.80
2022-11-16T06:49:17.867Z,30.30
2022-11-16T06:52:15.414Z,29.70
2022-11-16T06:55:12.872Z,27.40
2022-11-16T06:58:10.343Z,27.30
2022-11-16T07:01:07.868Z,26.80
2022-11-16T07:04:05.325Z,28.80
2022-11-16T07:07:02.839Z,26.80
2022-11-16T07:10:00.386Z,26.50
2022-11-16T07:12:57.862Z,26.90
2022-11-16T07:15:55.302Z,34.10
2022-11-16T07:18:52.836Z,29.20
2022-11-16T07:21:50.286Z,33.40
2022-11-16T07:24:47.754Z,32.90
2022-11-16T07:27:45.227Z,52.20
2022-11-16T07:30:42.659Z,40.70
2022-11-16T07:33:40.083Z,29.90
2022-11-16T07:36:37.534Z,26.50
2022-11-16T07:39:34.970Z,31.20
2022-11-16T07:42:32.403Z,22.60
2022-11-16T07:45:29.890Z,21.60
2022-11-16T07:48:27.340Z,38.30
2022-11-16T07:51:24.797Z,20.80
2022-11-16T07:54:22.260Z,19.20
2022-11-16T07:57:19.692Z,23.10
2022-11-16T08:00:17.150Z,32.30
2022-11-16T08:03:14.600Z,22.30
2022-11-16T08:06:12.073Z,20.90
2022-11-16T08:09:09.532Z,17.70
2022-11-16T08:12:07.072Z,18.40
2022-11-16T08:15:04.539Z,20.90
2022-11-16T08:18:02.010Z,18.00
2022-11-16T08:20:59.514Z,17.90
2022-11-16T08:23:58.741Z,18.50
2022-11-16T08:26:58.893Z,16.10
2022-11-16T08:29:56.786Z,16.20
2022-11-16T08:32:54.223Z,17.00
2022-11-16T08:35:51.668Z,18.00
2022-11-16T08:38:49.107Z,18.50
2022-11-16T08:41:46.587Z,16.70
2022-11-16T08:44:44.024Z,17.20
2022-11-16T08:47:41.493Z,16.00
2022-11-16T08:51:09.922Z,17.70
2022-11-16T08:53:56.378Z,17.30
2022-11-16T08:56:53.846Z,18.30
2022-11-16T08:59:51.290Z,16.40
2022-11-16T09:02:48.745Z,16.50
2022-11-16T09:05:47.057Z,16.60
2022-11-16T09:08:44.503Z,15.70
2022-11-16T09:11:41.988Z,14.50
2022-11-16T09:14:39.655Z,15.70
2022-11-16T09:17:37.137Z,15.10
2022-11-16T09:20:34.610Z,14.40
2022-11-16T09:23:32.056Z,14.70
2022-11-16T09:26:30.372Z,14.10
2022-11-16T09:29:28.831Z,15.00
2022-11-16T09:32:26.299Z,13.80
2022-11-16T09:35:24.188Z,14.30
2022-11-16T09:38:30.552Z,13.30
2022-11-16T09:41:37.928Z,13.50
2022-11-16T09:44:35.792Z,13.40
2022-11-16T09:47:33.244Z,12.90
2022-11-16T09:50:30.683Z,15.00
2022-11-16T09:53:28.144Z,14.10
2022-11-16T09:56:25.982Z,13.60
2022-11-16T09:59:23.710Z,14.50
2022-11-16T10:02:21.457Z,14.80
2022-11-16T10:05:18.911Z,13.60
2022-11-16T10:08:16.394Z,14.40
2022-11-16T10:11:13.855Z,12.10
2022-11-16T10:14:11.295Z,14.20
2022-11-16T10:17:08.746Z,14.40
2022-11-16T10:20:06.419Z,14.30
2022-11-16T10:23:04.282Z,14.20
2022-11-16T10:26:01.879Z,14.00
2022-11-16T10:28:59.361Z,13.20
2022-11-16T10:31:56.814Z,13.30
2022-11-16T10:34:54.301Z,14.20
2022-11-16T10:37:51.792Z,13.60
2022-11-16T10:40:49.261Z,12.80
2022-11-16T10:43:46.745Z,12.30
2022-11-16T10:46:44.975Z,11.20
2022-11-16T10:49:42.670Z,11.10
2022-11-16T10:52:40.136Z,10.40
2022-11-16T10:55:37.597Z,10.40
2022-11-16T10:58:35.085Z,9.30
2022-11-16T11:01:32.512Z,9.70
2022-11-16T11:04:30.143Z,9.80
2022-11-16T11:07:27.722Z,10.40
2022-11-16T11:10:25.288Z,10.70
2022-11-16T11:13:22.725Z,9.90
2022-11-16T11:16:20.681Z,8.70
2022-11-16T11:19:18.193Z,9.40
2022-11-16T11:22:15.910Z,9.80
2022-11-16T11:25:13.494Z,9.80
2022-11-16T11:28:10.961Z,8.70
2022-11-16T11:31:08.434Z,8.80
2022-11-16T11:34:05.869Z,9.30
2022-11-16T11:37:03.495Z,8.40
2022-11-16T11:40:00.962Z,9.10
2022-11-16T11:42:58.710Z,8.70
2022-11-16T11:45:56.169Z,8.30
2022-11-16T11:48:53.681Z,7.60
2022-11-16T11:51:51.176Z,7.70
2022-11-16T11:54:48.768Z,7.40
2022-11-16T11:57:46.240Z,7.70
2022-11-16T12:00:43.697Z,10.90
2022-11-16T12:03:41.169Z,9.80
2022-11-16T12:06:43.631Z,11.60
2022-11-16T12:09:41.950Z,11.00
2022-11-16T12:12:39.439Z,11.30
2022-11-16T12:15:36.907Z,11.10
2022-11-16T12:18:34.353Z,13.20
2022-11-16T12:21:31.825Z,11.30
2022-11-16T12:24:29.265Z,12.30
2022-11-16T12:27:27.467Z,11.80
2022-11-16T12:30:24.935Z,10.80
2022-11-16T12:33:23.807Z,10.70
2022-11-16T12:36:21.268Z,11.50
2022-11-16T12:39:18.773Z,11.80
2022-11-16T12:42:16.276Z,11.20
2022-11-16T12:45:14.529Z,11.30
2022-11-16T12:48:11.992Z,11.10
2022-11-16T12:51:09.854Z,11.40
2022-11-16T12:54:07.317Z,11.20
2022-11-16T12:57:04.816Z,10.50
2022-11-16T13:00:02.267Z,9.60
2022-11-16T13:03:00.220Z,8.40
2022-11-16T13:05:57.682Z,9.60
2022-11-16T13:08:55.280Z,8.20
2022-11-16T13:11:52.732Z,7.70
2022-11-16T13:14:51.703Z,7.80
2022-11-16T13:17:49.178Z,6.90
2022-11-16T13:20:46.642Z,6.80
2022-11-16T13:23:44.175Z,7.60
2022-11-16T13:26:41.916Z,8.20
2022-11-16T13:29:39.362Z,6.90
2022-11-16T13:32:36.851Z,6.70
2022-11-16T13:35:34.313Z,6.80
2022-11-16T13:38:32.088Z,6.00
2022-11-16T13:41:30.136Z,6.10
2022-11-16T13:44:27.630Z,6.30
2022-11-16T13:47:25.073Z,6.80
2022-11-16T13:50:22.535Z,6.70
2022-11-16T13:54:10.885Z,5.60
2022-11-16T13:56:37.482Z,5.40
2022-11-16T13:59:34.947Z,7.30
2022-11-16T14:02:32.584Z,7.10
2022-11-16T14:05:30.036Z,6.50
2022-11-16T14:08:27.515Z,6.70
2022-11-16T14:11:24.965Z,5.80
2022-11-16T14:14:22.410Z,6.20
2022-11-16T14:17:19.851Z,6.40
2022-11-16T14:20:22.203Z,6.60
2022-11-16T14:23:19.846Z,6.20
2022-11-16T14:26:17.334Z,6.70
2022-11-16T14:29:15.509Z,6.50
2022-11-16T14:32:12.944Z,6.80
2022-11-16T14:35:10.495Z,6.10
2022-11-16T14:38:07.942Z,7.30
2022-11-16T14:41:05.399Z,8.10
2022-11-16T14:44:02.832Z,9.00
2022-11-16T14:47:00.287Z,8.80
2022-11-16T14:49:57.740Z,10.10
2022-11-16T14:52:55.173Z,9.80
2022-11-16T14:55:52.765Z,9.20
2022-11-16T14:58:50.220Z,9.20
2022-11-16T15:01:47.693Z,7.40
2022-11-16T15:04:45.184Z,8.30
2022-11-16T15:07:42.716Z,8.20
2022-11-16T15:10:40.196Z,7.40
2022-11-16T15:13:37.871Z,7.80
2022-11-16T15:16:35.331Z,8.00
2022-11-16T15:19:33.256Z,7.80
2022-11-16T15:22:30.754Z,7.90
2022-11-16T15:25:28.206Z,7.60
2022-11-16T15:28:26.576Z,8.20
2022-11-16T15:31:24.285Z,8.00
2022-11-16T15:34:24.888Z,8.00
2022-11-16T15:37:22.356Z,7.70
2022-11-16T15:40:19.805Z,8.20
2022-11-16T15:43:18.149Z,8.60
2022-11-16T15:46:15.626Z,8.80
2022-11-16T15:49:13.074Z,8.20
2022-11-16T15:52:10.816Z,8.30
2022-11-16T15:55:08.256Z,8.00
2022-11-16T15:58:07.364Z,8.60
2022-11-16T16:01:04.956Z,8.00
2022-11-16T16:04:02.447Z,8.40
2022-11-16T16:06:59.992Z,8.10
2022-11-16T16:09:59.636Z,8.30
2022-11-16T16:12:57.109Z,8.60
2022-11-16T16:15:56.975Z,8.30
2022-11-16T16:18:54.454Z,8.90
2022-11-16T16:21:53.775Z,9.20
2022-11-16T16:24:51.228Z,9.70
2022-11-16T16:27:48.941Z,9.90
2022-11-16T16:30:46.452Z,9.50
2022-11-16T16:33:44.511Z,10.10
2022-11-16T16:36:42.391Z,9.70
2022-11-16T16:39:40.256Z,9.90
2022-11-16T16:42:37.711Z,9.70
2022-11-16T16:45:35.547Z,9.40
2022-11-16T16:48:33.460Z,8.90
2022-11-16T16:51:30.900Z,8.40
2022-11-16T16:54:29.080Z,9.10
2022-11-16T16:57:27.007Z,7.70
2022-11-16T17:00:25.236Z,7.80
2022-11-16T17:03:24.264Z,8.20
2022-11-16T17:06:21.895Z,8.00
2022-11-16T17:09:19.444Z,8.90
2022-11-16T17:12:17.893Z,7.70
2022-11-16T17:15:19.378Z,9.60
2022-11-16T17:21:16.860Z,8.20
2022-11-16T17:24:15.392Z,7.90
2022-11-16T17:27:14.302Z,8.00
2022-11-16T17:30:12.415Z,8.20
2022-11-16T17:33:10.536Z,7.10
2022-11-16T17:36:10.833Z,7.00
2022-11-16T17:39:08.605Z,7.00
2022-11-16T17:42:06.103Z,6.50
2022-11-16T17:45:05.678Z,6.40
2022-11-16T17:48:04.130Z,6.60
2022-11-16T17:51:02.711Z,6.80
2022-11-16T17:54:00.774Z,6.50
2022-11-16T17:56:59.201Z,6.40
2022-11-16T17:59:57.371Z,5.70
2022-11-16T18:02:55.513Z,5.90
2022-11-16T18:05:54.003Z,5.80
2022-11-16T18:08:52.390Z,4.90
2022-11-16T18:11:50.975Z,5.70
2022-11-16T18:15:13.373Z,5.20
2022-11-16T18:18:07.923Z,5.20
2022-11-16T18:21:06.388Z,4.80
2022-11-16T18:24:05.419Z,4.80
2022-11-16T18:27:04.075Z,4.80
2022-11-16T18:30:02.558Z,5.10
2022-11-16T18:33:00.873Z,4.30
2022-11-16T18:36:01.475Z,3.60
2022-11-16T18:38:59.932Z,4.00
2022-11-16T18:41:58.389Z,3.80
2022-11-16T18:44:57.427Z,3.60
2022-11-16T18:47:56.081Z,3.60
2022-11-16T18:50:54.813Z,3.30
2022-11-16T18:53:52.951Z,3.30
2022-11-16T18:56:53.294Z,4.30
2022-11-16T18:59:51.380Z,3.70
2022-11-16T19:02:49.891Z,3.80
2022-11-16T19:05:48.370Z,3.70
2022-11-16T19:08:50.506Z,4.50
2022-11-16T19:11:52.546Z,3.60
2022-11-16T19:14:52.510Z,3.40
2022-11-16T19:18:19.861Z,3.40
2022-11-16T19:21:12.279Z,3.90
2022-11-16T19:27:24.069Z,3.90
2022-11-16T19:30:23.415Z,3.20
2022-11-16T19:33:22.824Z,3.60
2022-11-16T19:36:21.050Z,3.70
2022-11-16T19:39:19.123Z,3.80
2022-11-16T19:42:17.654Z,4.90
2022-11-16T19:45:16.340Z,5.50
2022-11-16T19:48:14.925Z,4.40
2022-11-16T19:51:13.026Z,5.00
2022-11-16T19:54:16.089Z,3.90
2022-11-16T19:57:16.260Z,3.60
2022-11-16T20:00:15.442Z,3.50
2022-11-16T20:03:14.405Z,3.40
2022-11-16T20:06:12.923Z,3.60
2022-11-16T20:09:12.703Z,3.50
2022-11-16T20:12:10.708Z,3.50
2022-11-16T20:15:09.360Z,3.40
2022-11-16T20:18:07.735Z,3.40
2022-11-16T20:21:07.969Z,2.60
2022-11-16T20:24:07.406Z,3.50
2022-11-16T20:27:06.469Z,2.90
2022-11-16T20:30:09.298Z,2.70
2022-11-16T20:33:08.151Z,2.90
2022-11-16T20:36:06.222Z,3.20
2022-11-16T20:39:04.398Z,3.30
2022-11-16T20:42:02.987Z,3.20
2022-11-16T20:45:02.693Z,3.50
2022-11-16T20:48:02.914Z,3.60
2022-11-16T20:51:00.988Z,3.20
2022-11-16T20:54:00.275Z,3.60
2022-11-16T20:57:00.206Z,3.50
2022-11-16T20:59:57.823Z,3.40
2022-11-16T21:02:56.359Z,3.80
2022-11-16T21:05:54.844Z,3.50
2022-11-16T21:08:52.927Z,3.50
2022-11-16T21:12:08.096Z,3.90
2022-11-16T21:15:05.562Z,4.60
2022-11-16T21:18:03.041Z,5.30
2022-11-16T21:21:00.755Z,5.50
2022-11-16T21:23:58.281Z,4.10
2022-11-16T21:26:55.726Z,3.40
2022-11-16T21:29:53.182Z,3.40
2022-11-16T21:32:50.722Z,3.40
2022-11-16T21:35:48.205Z,3.80
2022-11-16T21:38:45.666Z,3.60
2022-11-16T21:41:46.176Z,4.20
2022-11-16T21:44:43.636Z,3.60
2022-11-16T21:47:41.107Z,4.00
2022-11-16T21:50:38.552Z,3.60
2022-11-16T21:53:37.646Z,3.30
2022-11-16T21:56:35.356Z,3.30
2022-11-16T21:59:32.853Z,3.50
2022-11-16T22:02:30.304Z,3.20
2022-11-16T22:05:45.692Z,3.80
2022-11-16T22:08:43.210Z,3.30
2022-11-16T22:11:40.655Z,3.10
2022-11-16T22:14:38.147Z,2.60
2022-11-16T22:17:35.600Z,3.20
2022-11-16T22:20:33.055Z,3.40
2022-11-16T22:23:30.512Z,3.40
2022-11-16T22:26:28.015Z,3.70
2022-11-16T22:29:25.490Z,3.30
2022-11-16T22:32:22.944Z,3.70
2022-11-16T22:35:20.395Z,3.70
2022-11-16T22:38:17.847Z,3.60
2022-11-16T22:41:15.306Z,3.70
2022-11-16T22:44:12.744Z,3.60
2022-11-16T22:47:10.195Z,3.70
2022-11-16T22:50:07.653Z,3.60
2022-11-16T22:53:05.110Z,4.00
2022-11-16T22:56:02.594Z,3.70
2022-11-16T22:59:00.824Z,3.90
2022-11-16T23:02:02.914Z,4.10
2022-11-16T23:05:00.379Z,4.20
2022-11-16T23:07:58.282Z,3.80
2022-11-16T23:11:09.608Z,4.40
2022-11-16T23:14:24.659Z,4.50
2022-11-16T23:17:22.129Z,5.00
2022-11-16T23:20:37.153Z,5.00
2022-11-16T23:23:52.998Z,4.80
2022-11-16T23:27:08.241Z,5.00
2022-11-16T23:30:10.950Z,4.40
2022-11-16T23:33:10.081Z,5.40
2022-11-16T23:36:07.885Z,5.30
2022-11-16T23:39:05.358Z,4.90
2022-11-16T23:42:20.929Z,5.00
2022-11-16T23:45:18.619Z,5.40
2022-11-16T23:48:16.070Z,5.90
2022-11-16T23:51:13.521Z,5.70
2022-11-16T23:54:10.983Z,6.20
2022-11-16T23:57:08.465Z,5.60
